Time;durP1;ratioP1;P1;durP2;ratioP2;P2;SDS_P1;SDS_P2;PMS_P1;PMS_P2;Temp;Humidity;BMP_temperature;BMP_pressure;BME280_temperature;BME280_humidity;BME280_pressure;Samples;Min_cycle;Max_cycle;Signal;HPM_P1;HPM_P2
2020/12/27 00:01:59;;;;;;;17.00;13.73;;;5.50;91.90;;;;;;4343208;33;20225;-67
2020/12/27 00:04:25;;;;;;;17.93;12.00;;;5.50;92.00;;;;;;4341823;33;20504;-68
2020/12/27 00:06:54;;;;;;;16.17;12.83;;;5.60;91.90;;;;;;4343574;33;20161;-67
2020/12/27 00:09:22;;;;;;;16.33;12.10;;;5.50;92.00;;;;;;4336982;33;20200;-67
2020/12/27 00:11:58;;;;;;;15.47;12.77;;;5.50;91.90;;;;;;4340295;33;20174;-67
2020/12/27 00:14:26;;;;;;;17.10;12.60;;;5.50;92.00;;;;;;4339193;32;20626;-66
2020/12/27 00:16:53;;;;;;;15.57;12.47;;;5.50;92.10;;;;;;4342542;33;20164;-65
2020/12/27 00:19:21;;;;;;;14.03;12.43;;;5.50;92.10;;;;;;4339149;32;20165;-67
2020/12/27 00:21:47;;;;;;;15.30;12.67;;;5.50;92.10;;;;;;4342789;32;20223;-66
2020/12/27 00:24:14;;;;;;;16.37;13.33;;;5.50;92.30;;;;;;4335809;32;20240;-66
2020/12/27 00:26:40;;;;;;;15.97;13.33;;;5.50;92.40;;;;;;4342997;33;20216;-66
2020/12/27 00:29:10;;;;;;;14.67;12.90;;;5.50;92.30;;;;;;4342034;33;20192;-67
2020/12/27 00:31:38;;;;;;;18.20;14.73;;;5.40;92.60;;;;;;4342318;33;20164;-67
2020/12/27 00:34:10;;;;;;;22.30;15.07;;;5.40;92.70;;;;;;4341924;32;20217;-67
2020/12/27 00:36:38;;;;;;;16.87;14.33;;;5.40;92.70;;;;;;4340614;33;20629;-65
2020/12/27 00:39:06;;;;;;;16.20;13.70;;;5.40;92.60;;;;;;4341080;33;20172;-66
2020/12/27 00:44:23;;;;;;;19.03;13.90;;;5.30;92.70;;;;;;4341178;32;20196;-66
2020/12/27 00:46:50;;;;;;;17.60;14.13;;;5.30;92.70;;;;;;4343411;32;20197;-66
2020/12/27 00:49:18;;;;;;;20.77;15.07;;;5.30;92.70;;;;;;4340778;33;20217;-67
2020/12/27 00:51:47;;;;;;;17.53;14.83;;;5.30;92.70;;;;;;4341229;33;20624;-66
2020/12/27 00:54:17;;;;;;;19.50;13.83;;;5.20;92.70;;;;;;4341520;32;20164;-67
2020/12/27 00:56:52;;;;;;;20.20;15.33;;;5.20;92.70;;;;;;4342085;33;20848;-69
2020/12/27 00:59:21;;;;;;;21.13;15.83;;;5.20;92.80;;;;;;4340802;33;20240;-66
2020/12/27 01:01:47;;;;;;;22.53;16.43;;;5.20;93.00;;;;;;4340525;33;20162;-66
2020/12/27 01:04:14;;;;;;;24.57;16.43;;;5.20;92.90;;;;;;4341618;33;20248;-66
2020/12/27 01:06:45;;;;;;;19.47;15.87;;;5.20;92.70;;;;;;4342018;33;20191;-66
2020/12/27 01:09:19;;;;;;;19.80;15.93;;;5.20;92.90;;;;;;4340344;33;20176;-66
2020/12/27 01:11:58;;;;;;;19.93;15.57;;;5.10;93.00;;;;;;4338025;33;20180;-65
2020/12/27 01:14:24;;;;;;;19.97;16.40;;;5.10;93.00;;;;;;4338751;33;20582;-66
2020/12/27 01:17:01;;;;;;;21.40;15.27;;;5.10;93.00;;;;;;4332529;33;20548;-69
2020/12/27 01:19:29;;;;;;;22.10;15.57;;;5.10;92.80;;;;;;4339725;32;20217;-65
2020/12/27 01:21:55;;;;;;;23.97;15.97;;;5.10;92.70;;;;;;4333781;33;20165;-66
2020/12/27 01:24:23;;;;;;;21.13;15.57;;;5.10;92.70;;;;;;4344098;33;20168;-68
2020/12/27 01:26:53;;;;;;;21.17;16.70;;;5.10;92.70;;;;;;4345559;33;20228;-68
2020/12/27 01:29:21;;;;;;;22.57;16.13;;;5.10;92.90;;;;;;4345707;33;20208;-66
2020/12/27 01:32:01;;;;;;;22.80;16.47;;;5.10;92.70;;;;;;4339966;33;20168;-66
2020/12/27 01:34:33;;;;;;;19.40;14.93;;;5.10;92.80;;;;;;4345704;33;20162;-68
2020/12/27 01:37:01;;;;;;;17.27;14.83;;;5.10;92.60;;;;;;4344271;33;20154;-66
2020/12/27 01:39:33;;;;;;;17.97;13.30;;;5.00;92.40;;;;;;4332401;33;20638;-66
2020/12/27 01:42:00;;;;;;;22.00;14.80;;;5.10;92.30;;;;;;4332652;32;20664;-64
2020/12/27 01:44:26;;;;;;;16.53;13.03;;;5.00;92.50;;;;;;4344113;33;20579;-65
2020/12/27 01:46:52;;;;;;;19.03;13.87;;;5.00;92.40;;;;;;4343124;33;20201;-66
2020/12/27 01:49:20;;;;;;;19.50;12.80;;;5.00;92.40;;;;;;4340858;33;20511;-66
2020/12/27 01:51:46;;;;;;;18.63;13.23;;;5.00;92.30;;;;;;4335313;33;20213;-66
2020/12/27 01:54:12;;;;;;;19.27;13.73;;;5.00;92.40;;;;;;4340315;33;20213;-65
2020/12/27 01:56:45;;;;;;;19.07;13.93;;;5.00;92.70;;;;;;4342748;32;20443;-67
2020/12/27 01:59:22;;;;;;;22.97;14.40;;;5.00;92.70;;;;;;4335568;33;20214;-64
2020/12/27 02:01:51;;;;;;;21.67;15.07;;;4.90;92.80;;;;;;4338395;33;20187;-67
2020/12/27 02:04:21;;;;;;;20.30;14.67;;;4.90;93.00;;;;;;4344157;33;20216;-66
2020/12/27 02:06:50;;;;;;;20.87;13.77;;;4.90;93.10;;;;;;4340562;33;20212;-66
2020/12/27 02:09:17;;;;;;;22.57;14.33;;;4.90;92.90;;;;;;4340086;33;20215;-66
2020/12/27 02:11:49;;;;;;;19.00;13.53;;;4.90;92.90;;;;;;4343496;32;20172;-67
2020/12/27 02:14:18;;;;;;;18.10;13.73;;;4.90;92.90;;;;;;4339266;33;20157;-65
2020/12/27 02:16:47;;;;;;;16.53;12.87;;;4.90;92.90;;;;;;4342290;33;20157;-67
2020/12/27 02:19:13;;;;;;;15.63;12.07;;;4.90;92.70;;;;;;4339993;33;20238;-67
2020/12/27 02:21:43;;;;;;;14.27;11.13;;;4.90;92.60;;;;;;4338287;33;20250;-65
2020/12/27 02:24:16;;;;;;;15.97;11.40;;;4.90;92.60;;;;;;4343165;33;20177;-65
2020/12/27 02:27:00;;;;;;;16.07;11.17;;;4.90;92.70;;;;;;4345454;32;20208;-67
2020/12/27 02:29:28;;;;;;;17.73;11.57;;;4.90;92.60;;;;;;4339789;33;20169;-66
2020/12/27 02:31:59;;;;;;;14.70;11.33;;;4.90;92.50;;;;;;4341337;33;20199;-66
2020/12/27 02:34:30;;;;;;;15.50;11.97;;;4.90;92.80;;;;;;4343696;33;20196;-66
2020/12/27 02:36:59;;;;;;;15.23;10.57;;;4.90;92.60;;;;;;4343147;33;20221;-66
2020/12/27 02:39:37;;;;;;;15.37;10.97;;;4.90;92.50;;;;;;4340417;33;20156;-68
2020/12/27 02:42:04;;;;;;;13.07;10.13;;;4.90;92.70;;;;;;4335673;33;20253;-68
2020/12/27 02:47:05;;;;;;;13.80;9.33;;;4.90;92.70;;;;;;4333929;33;20201;-67
2020/12/27 02:49:34;;;;;;;13.00;9.67;;;4.90;92.50;;;;;;4343325;33;20533;-67
2020/12/27 02:52:08;;;;;;;15.47;9.70;;;4.90;92.60;;;;;;4343353;33;20216;-66
2020/12/27 02:54:44;;;;;;;11.27;9.20;;;4.90;92.20;;;;;;4343597;32;20188;-65
2020/12/27 02:57:13;;;;;;;12.23;9.30;;;4.90;92.30;;;;;;4342460;33;20209;-66
2020/12/27 02:59:46;;;;;;;14.03;9.13;;;4.90;92.50;;;;;;4340428;33;20637;-66
2020/12/27 03:02:12;;;;;;;12.27;8.57;;;4.90;92.60;;;;;;4342475;33;20219;-64
2020/12/27 03:04:40;;;;;;;13.17;9.47;;;4.90;92.50;;;;;;4342331;32;20181;-64
2020/12/27 03:07:08;;;;;;;10.40;8.67;;;4.90;92.80;;;;;;4342122;33;20184;-65
2020/12/27 03:09:35;;;;;;;14.43;9.43;;;4.90;92.60;;;;;;4343310;33;20206;-64
2020/12/27 03:12:07;;;;;;;12.13;9.53;;;4.90;92.80;;;;;;4342899;32;20171;-65
2020/12/27 03:14:34;;;;;;;12.90;8.63;;;4.90;92.70;;;;;;4342456;33;20223;-65
2020/12/27 03:17:05;;;;;;;13.53;8.83;;;4.90;92.90;;;;;;4338399;32;20172;-66
2020/12/27 03:19:34;;;;;;;16.67;8.90;;;4.90;92.90;;;;;;4335084;32;20178;-67
2020/12/27 03:22:01;;;;;;;10.70;8.13;;;4.90;92.80;;;;;;4330480;33;20213;-65
2020/12/27 03:24:27;;;;;;;11.20;8.27;;;4.90;92.80;;;;;;4335128;33;20181;-65
2020/12/27 03:26:56;;;;;;;11.77;7.13;;;4.90;92.80;;;;;;4341304;32;20183;-68
2020/12/27 03:29:22;;;;;;;12.07;7.33;;;4.90;92.80;;;;;;4343428;33;20168;-66
2020/12/27 03:31:53;;;;;;;9.80;7.17;;;4.90;92.60;;;;;;4342114;33;20590;-66
2020/12/27 03:34:22;;;;;;;12.33;7.00;;;4.90;92.80;;;;;;4343682;32;20149;-65
2020/12/27 03:36:53;;;;;;;12.53;7.33;;;4.90;92.80;;;;;;4336452;33;20213;-66
2020/12/27 03:39:25;;;;;;;8.17;6.40;;;4.90;92.80;;;;;;4333386;32;20167;-64
2020/12/27 03:41:58;;;;;;;9.60;6.77;;;4.90;92.90;;;;;;4336162;33;20165;-67
2020/12/27 03:44:31;;;;;;;8.93;7.03;;;4.90;93.00;;;;;;4343156;33;20229;-66
2020/12/27 03:47:04;;;;;;;10.47;7.13;;;4.90;93.10;;;;;;4340779;33;20210;-67
2020/12/27 03:49:33;;;;;;;8.93;6.57;;;4.90;92.80;;;;;;4343959;32;20240;-69
2020/12/27 03:52:02;;;;;;;7.67;6.17;;;4.90;92.90;;;;;;4343536;33;20217;-65
2020/12/27 03:54:41;;;;;;;10.00;7.30;;;4.90;93.10;;;;;;4344282;33;20232;-65
2020/12/27 03:57:18;;;;;;;8.27;6.70;;;4.90;93.10;;;;;;4336077;33;20258;-65
2020/12/27 03:59:44;;;;;;;10.07;6.57;;;4.90;93.20;;;;;;4337662;33;20196;-67
2020/12/27 04:02:15;;;;;;;7.83;6.20;;;4.90;93.10;;;;;;4343420;32;20180;-65
2020/12/27 04:04:46;;;;;;;9.80;6.47;;;4.90;93.30;;;;;;4344488;33;20467;-66
2020/12/27 04:07:32;;;;;;;11.23;6.40;;;4.90;93.20;;;;;;4341164;33;20185;-67
2020/12/27 04:10:01;;;;;;;8.37;6.13;;;4.90;93.20;;;;;;4331278;32;20168;-66
2020/12/27 04:12:28;;;;;;;8.27;6.30;;;4.90;93.30;;;;;;4342711;33;20255;-66
2020/12/27 04:14:58;;;;;;;8.10;6.23;;;4.90;93.30;;;;;;4342606;32;20588;-65
2020/12/27 04:17:29;;;;;;;11.50;5.70;;;4.90;93.40;;;;;;4342370;33;20204;-65
2020/12/27 04:19:57;;;;;;;8.10;5.60;;;4.90;93.20;;;;;;4342423;33;20153;-65
2020/12/27 04:22:26;;;;;;;10.67;6.67;;;4.90;93.30;;;;;;4342251;32;20459;-65
2020/12/27 04:24:54;;;;;;;8.13;5.53;;;4.90;93.20;;;;;;4342496;33;22461;-65
2020/12/27 04:27:22;;;;;;;8.33;5.67;;;4.90;93.50;;;;;;4337874;32;20225;-67
2020/12/27 04:30:08;;;;;;;10.03;6.37;;;4.90;93.20;;;;;;4342588;33;20176;-65
2020/12/27 04:32:38;;;;;;;7.33;5.90;;;4.90;93.20;;;;;;4343000;33;20539;-67
2020/12/27 04:35:07;;;;;;;8.37;5.57;;;4.90;93.20;;;;;;4343783;33;20268;-65
2020/12/27 04:37:39;;;;;;;10.67;5.90;;;4.90;93.30;;;;;;4337558;33;20215;-65
2020/12/27 04:40:28;;;;;;;9.30;5.47;;;4.90;93.30;;;;;;4341461;33;20228;-66
2020/12/27 04:42:59;;;;;;;6.97;5.70;;;4.90;93.40;;;;;;4357834;33;20173;-65
2020/12/27 04:45:26;;;;;;;8.20;5.30;;;5.00;93.40;;;;;;4346495;33;20185;-66
2020/12/27 04:47:57;;;;;;;6.50;4.73;;;5.00;93.40;;;;;;4344838;33;20201;-65
2020/12/27 04:50:26;;;;;;;6.83;5.30;;;5.00;93.40;;;;;;4346706;32;20184;-66
2020/12/27 04:53:00;;;;;;;7.27;5.20;;;5.00;93.30;;;;;;4348170;32;20187;-67
2020/12/27 04:55:28;;;;;;;6.23;5.07;;;5.00;93.40;;;;;;4353447;32;20166;-66
2020/12/27 04:57:59;;;;;;;7.40;4.67;;;5.00;93.20;;;;;;4347768;32;20224;-68
2020/12/27 05:00:29;;;;;;;5.37;4.10;;;5.00;93.20;;;;;;4354839;32;20268;-65
2020/12/27 05:02:55;;;;;;;6.93;4.23;;;5.00;93.60;;;;;;4359124;33;20198;-67
2020/12/27 05:05:22;;;;;;;4.93;4.00;;;5.00;93.40;;;;;;4345384;33;20236;-67
2020/12/27 05:07:53;;;;;;;7.40;4.07;;;5.00;93.20;;;;;;4348622;33;20667;-66
2020/12/27 05:10:28;;;;;;;4.37;3.90;;;5.00;93.30;;;;;;4350517;33;20194;-66
2020/12/27 05:12:56;;;;;;;6.67;3.80;;;5.00;93.20;;;;;;4357047;33;20196;-65
2020/12/27 05:15:28;;;;;;;5.33;4.30;;;5.10;93.10;;;;;;4353484;33;20263;-64
2020/12/27 05:17:59;;;;;;;4.83;3.70;;;5.10;93.30;;;;;;4357411;32;20218;-66
2020/12/27 05:20:26;;;;;;;6.97;3.63;;;5.10;93.20;;;;;;4336162;33;20312;-66
2020/12/27 05:22:59;;;;;;;4.13;3.70;;;5.10;93.30;;;;;;4342437;33;20231;-65
2020/12/27 05:25:29;;;;;;;3.20;2.90;;;5.10;93.20;;;;;;4331769;32;20154;-66
2020/12/27 05:28:00;;;;;;;3.27;2.97;;;5.10;92.90;;;;;;4333891;33;20606;-66
2020/12/27 05:30:26;;;;;;;6.07;2.80;;;5.10;93.00;;;;;;4340937;32;20178;-66
2020/12/27 05:32:53;;;;;;;3.40;2.50;;;5.10;93.00;;;;;;4383498;32;20167;-65
2020/12/27 05:35:29;;;;;;;3.87;2.33;;;5.10;93.10;;;;;;4382746;32;20205;-66
2020/12/27 05:38:05;;;;;;;3.27;2.40;;;5.10;93.00;;;;;;4343354;32;20211;-67
2020/12/27 05:40:36;;;;;;;4.00;1.93;;;5.10;93.00;;;;;;4341867;33;20199;-64
2020/12/27 05:43:20;;;;;;;4.93;2.20;;;5.10;92.90;;;;;;4343232;32;20263;-67
2020/12/27 05:45:55;;;;;;;2.53;2.30;;;5.20;92.60;;;;;;4380190;32;20629;-67
2020/12/27 05:48:31;;;;;;;2.07;1.60;;;5.10;92.80;;;;;;4335939;33;20513;-65
2020/12/27 05:51:16;;;;;;;3.50;1.70;;;5.20;92.90;;;;;;4344235;33;20153;-66
2020/12/27 05:53:56;;;;;;;1.93;1.53;;;5.10;92.70;;;;;;4342997;32;20234;-68
2020/12/27 05:56:42;;;;;;;2.03;1.70;;;5.10;92.90;;;;;;4343619;32;20158;-66
2020/12/27 05:59:16;;;;;;;2.07;1.40;;;5.10;92.90;;;;;;4338954;33;20209;-67
2020/12/27 06:01:59;;;;;;;1.67;1.50;;;5.10;92.80;;;;;;4341703;33;20200;-68
2020/12/27 06:05:08;;;;;;;1.87;1.47;;;5.10;92.90;;;;;;4337925;32;20168;-67
2020/12/27 06:07:45;;;;;;;1.97;1.40;;;5.10;92.70;;;;;;4357832;32;20565;-64
2020/12/27 06:10:17;;;;;;;1.67;1.20;;;5.10;92.70;;;;;;4356440;32;20727;-65
2020/12/27 06:13:32;;;;;;;1.40;1.30;;;5.10;92.90;;;;;;4358920;32;20790;-64
2020/12/27 06:16:09;;;;;;;1.10;1.00;;;5.10;92.90;;;;;;4348188;32;20204;-66
2020/12/27 06:18:51;;;;;;;1.17;1.07;;;5.20;92.70;;;;;;4354398;33;20172;-64
2020/12/27 06:21:27;;;;;;;1.13;0.90;;;5.10;92.80;;;;;;4358400;32;20245;-66
2020/12/27 06:24:06;;;;;;;0.90;0.90;;;5.20;92.60;;;;;;4359388;32;20168;-66
2020/12/27 06:26:32;;;;;;;1.40;1.27;;;5.10;92.70;;;;;;4352361;33;20173;-66
2020/12/27 06:28:58;;;;;;;2.47;0.93;;;5.10;92.80;;;;;;4359298;32;20260;-66
2020/12/27 06:31:27;;;;;;;1.20;0.90;;;5.10;92.90;;;;;;4358417;32;20222;-66
2020/12/27 06:34:15;;;;;;;1.83;0.80;;;5.20;92.80;;;;;;4358983;33;20248;-65
2020/12/27 06:36:41;;;;;;;0.60;0.60;;;5.20;92.60;;;;;;4353549;33;20273;-68
2020/12/27 06:39:26;;;;;;;2.00;0.67;;;5.20;93.00;;;;;;4349194;32;20240;-64
2020/12/27 06:42:18;;;;;;;0.60;0.60;;;5.20;92.90;;;;;;4348619;32;20246;-65
2020/12/27 06:44:45;;;;;;;1.00;0.80;;;5.20;92.80;;;;;;4344191;33;20538;-65
2020/12/27 06:47:47;;;;;;;0.50;0.50;;;5.20;92.70;;;;;;4344138;33;20225;-64
2020/12/27 06:50:31;;;;;;;0.53;0.53;;;5.20;92.80;;;;;;4342414;32;20217;-65
2020/12/27 06:52:59;;;;;;;0.93;0.83;;;5.20;92.90;;;;;;4335136;32;20194;-64
2020/12/27 06:55:42;;;;;;;2.13;0.90;;;5.20;92.80;;;;;;4345091;32;20219;-66
2020/12/27 06:58:24;;;;;;;1.23;1.10;;;5.20;93.00;;;;;;4343560;32;20222;-63
2020/12/27 07:01:17;;;;;;;0.90;0.80;;;5.20;93.00;;;;;;4337944;33;20520;-64
2020/12/27 07:03:51;;;;;;;0.90;0.77;;;5.10;92.80;;;;;;4337999;33;20480;-65
2020/12/27 07:06:30;;;;;;;2.93;0.83;;;5.20;92.90;;;;;;4343368;33;20180;-65
2020/12/27 07:08:57;;;;;;;0.73;0.73;;;5.20;93.20;;;;;;4343415;33;20162;-64
2020/12/27 07:11:29;;;;;;;0.60;0.60;;;5.20;92.90;;;;;;4345744;32;20255;-64
2020/12/27 07:14:15;;;;;;;0.70;0.70;;;5.20;93.10;;;;;;4341790;33;20207;-64
2020/12/27 07:17:01;;;;;;;0.60;0.50;;;5.30;93.10;;;;;;4340833;32;20191;-65
2020/12/27 07:19:32;;;;;;;0.80;0.80;;;5.30;92.80;;;;;;4341442;33;20580;-66
2020/12/27 07:22:12;;;;;;;0.53;0.53;;;5.20;93.00;;;;;;4342158;33;20581;-66
2020/12/27 07:24:48;;;;;;;1.17;0.70;;;5.30;92.70;;;;;;4341672;33;20161;-67
2020/12/27 07:27:38;;;;;;;0.53;0.53;;;5.30;92.80;;;;;;4341715;32;20221;-65
2020/12/27 07:30:18;;;;;;;0.60;0.60;;;5.30;92.90;;;;;;4341512;33;20242;-67
2020/12/27 07:33:06;;;;;;;1.07;0.70;;;5.20;92.70;;;;;;4341272;33;20205;-65
2020/12/27 07:35:48;;;;;;;0.70;0.70;;;5.30;92.80;;;;;;4343060;33;20258;-68
2020/12/27 07:39:06;;;;;;;3.70;1.50;;;5.30;93.10;;;;;;4342808;33;20260;-64
2020/12/27 07:41:37;;;;;;;2.00;0.60;;;5.30;92.80;;;;;;4343327;32;20232;-63
2020/12/27 07:44:11;;;;;;;0.80;0.53;;;5.30;92.90;;;;;;4340313;32;20214;-69
2020/12/27 07:46:52;;;;;;;0.73;0.60;;;5.30;92.90;;;;;;4340261;33;20183;-66
2020/12/27 07:49:25;;;;;;;1.00;0.70;;;5.30;92.80;;;;;;4340409;33;20218;-65
2020/12/27 07:52:03;;;;;;;0.60;0.60;;;5.30;92.90;;;;;;4342149;33;20228;-67
2020/12/27 07:54:30;;;;;;;2.07;0.60;;;5.30;93.00;;;;;;4342344;33;20588;-67
2020/12/27 07:56:57;;;;;;;0.63;0.63;;;5.30;92.90;;;;;;4340113;32;20268;-66
2020/12/27 08:02:42;;;;;;;0.60;0.53;;;5.20;93.00;;;;;;4342804;32;20234;-67
2020/12/27 08:05:20;;;;;;;0.50;0.50;;;5.30;93.10;;;;;;4303467;33;20170;-67
2020/12/27 08:07:48;;;;;;;0.80;0.50;;;5.30;92.90;;;;;;4300609;33;20599;-67
2020/12/27 08:10:20;;;;;;;0.50;0.50;;;5.30;92.90;;;;;;4299877;33;20198;-68
2020/12/27 08:12:54;;;;;;;0.50;0.50;;;5.30;92.90;;;;;;4304162;33;20196;-66
2020/12/27 08:15:24;;;;;;;0.60;0.60;;;5.20;93.00;;;;;;4296074;33;20256;-66
2020/12/27 08:17:58;;;;;;;0.57;0.57;;;5.30;93.10;;;;;;4302440;33;20579;-69
2020/12/27 08:20:27;;;;;;;0.87;0.60;;;5.30;93.00;;;;;;4309594;33;20280;-66
2020/12/27 08:23:04;;;;;;;0.77;0.50;;;5.30;93.00;;;;;;4287003;33;20755;-65
2020/12/27 08:25:31;;;;;;;0.70;0.43;;;5.30;93.10;;;;;;4285041;33;20385;-65
2020/12/27 08:28:00;;;;;;;0.80;0.50;;;5.30;93.00;;;;;;4318261;33;20177;-68
2020/12/27 08:30:28;;;;;;;0.40;0.40;;;5.30;92.90;;;;;;4291799;33;20209;-67
2020/12/27 08:33:11;;;;;;;0.40;0.40;;;5.30;93.10;;;;;;4316346;32;20245;-64
2020/12/27 08:35:49;;;;;;;0.57;0.40;;;5.30;92.90;;;;;;4315837;32;20178;-66
2020/12/27 08:38:41;;;;;;;0.30;0.30;;;5.20;92.90;;;;;;4312867;33;20216;-65
2020/12/27 08:41:17;;;;;;;0.30;0.30;;;5.20;92.90;;;;;;4313997;33;20653;-65
2020/12/27 08:44:15;;;;;;;0.77;0.40;;;5.20;92.80;;;;;;4344736;33;20257;-69
2020/12/27 08:46:46;;;;;;;0.40;0.40;;;5.20;92.90;;;;;;4394427;32;20214;-65
2020/12/27 08:49:22;;;;;;;0.43;0.40;;;5.20;92.60;;;;;;4395888;32;20294;-66
2020/12/27 08:51:51;;;;;;;0.30;0.30;;;5.20;92.70;;;;;;4394691;32;20225;-66
2020/12/27 08:54:21;;;;;;;0.67;0.67;;;5.20;92.70;;;;;;4391683;32;20334;-68
2020/12/27 08:56:51;;;;;;;0.50;0.47;;;5.20;92.50;;;;;;4396455;32;20243;-65
2020/12/27 08:59:23;;;;;;;0.83;0.30;;;5.10;92.80;;;;;;4393195;32;20245;-67
2020/12/27 09:01:50;;;;;;;1.13;0.60;;;5.10;92.90;;;;;;4394059;32;20179;-65
2020/12/27 09:04:23;;;;;;;0.83;0.77;;;5.10;92.60;;;;;;4400367;32;20197;-66
2020/12/27 09:07:06;;;;;;;0.77;0.40;;;5.10;92.60;;;;;;4398755;32;20198;-65
2020/12/27 09:09:34;;;;;;;1.53;0.40;;;5.10;92.80;;;;;;4395208;32;20254;-65
2020/12/27 09:12:09;;;;;;;0.73;0.50;;;5.10;92.70;;;;;;4390667;32;20328;-64
2020/12/27 09:14:40;;;;;;;0.67;0.50;;;5.10;92.80;;;;;;4398912;32;20690;-64
2020/12/27 09:17:16;;;;;;;1.03;0.30;;;5.10;92.90;;;;;;4393322;32;20167;-66
2020/12/27 09:20:03;;;;;;;2.17;0.70;;;5.10;92.90;;;;;;4392123;32;20156;-65
2020/12/27 09:22:31;;;;;;;1.77;0.50;;;5.10;92.90;;;;;;4390579;32;20495;-66
2020/12/27 09:25:07;;;;;;;0.40;0.40;;;5.10;92.90;;;;;;4366896;32;20524;-66
2020/12/27 09:27:40;;;;;;;1.37;0.40;;;5.10;93.20;;;;;;4356154;32;20194;-66
2020/12/27 09:30:07;;;;;;;1.03;0.60;;;5.10;92.80;;;;;;4380338;32;20165;-64
2020/12/27 09:32:34;;;;;;;0.87;0.60;;;5.10;92.70;;;;;;4356544;32;20196;-67
2020/12/27 09:35:09;;;;;;;0.50;0.50;;;5.10;92.70;;;;;;4340899;33;20232;-65
2020/12/27 09:37:36;;;;;;;1.50;0.47;;;5.10;92.70;;;;;;4341402;33;20184;-64
2020/12/27 09:40:10;;;;;;;0.70;0.60;;;5.10;92.60;;;;;;4334747;32;20639;-65
2020/12/27 09:42:45;;;;;;;0.60;0.50;;;5.10;92.60;;;;;;4336941;32;20226;-67
2020/12/27 09:45:20;;;;;;;0.57;0.57;;;5.20;92.70;;;;;;4338563;32;20243;-66
2020/12/27 09:47:58;;;;;;;1.33;0.50;;;5.10;92.60;;;;;;4342348;32;20633;-64
2020/12/27 09:50:32;;;;;;;1.13;0.43;;;5.00;92.70;;;;;;4340672;32;20165;-64
2020/12/27 09:52:59;;;;;;;0.97;0.67;;;5.10;92.80;;;;;;4347668;32;20535;-65
2020/12/27 09:55:42;;;;;;;0.70;0.70;;;5.10;92.40;;;;;;4353477;32;20250;-65
2020/12/27 09:58:15;;;;;;;0.40;0.40;;;5.10;92.60;;;;;;4346343;32;20208;-65
2020/12/27 10:00:45;;;;;;;0.90;0.40;;;5.20;92.60;;;;;;4347133;32;20219;-65
2020/12/27 10:03:14;;;;;;;3.90;0.80;;;5.20;92.80;;;;;;4338984;33;20288;-65
2020/12/27 10:05:43;;;;;;;0.93;0.80;;;5.10;92.80;;;;;;4337072;33;20189;-65
2020/12/27 10:08:14;;;;;;;1.97;1.50;;;5.20;92.80;;;;;;4339766;32;20644;-64
2020/12/27 10:10:42;;;;;;;4.77;1.80;;;5.20;92.50;;;;;;4341253;32;20149;-68
2020/12/27 10:13:10;;;;;;;0.80;0.70;;;5.20;92.50;;;;;;4343332;32;20217;-64
2020/12/27 10:15:36;;;;;;;0.47;0.43;;;5.20;92.60;;;;;;4342510;32;20277;-65
2020/12/27 10:18:02;;;;;;;1.17;0.50;;;5.20;92.60;;;;;;4342457;33;20225;-66
2020/12/27 10:20:30;;;;;;;0.70;0.60;;;5.20;92.70;;;;;;4341390;33;20156;-67
2020/12/27 10:22:56;;;;;;;1.10;0.80;;;5.20;92.80;;;;;;4340310;32;20221;-64
2020/12/27 10:25:25;;;;;;;0.90;0.70;;;5.20;92.90;;;;;;4340233;33;20204;-65
2020/12/27 10:27:52;;;;;;;0.93;0.73;;;5.30;92.80;;;;;;4342344;33;20185;-68
2020/12/27 10:30:19;;;;;;;0.73;0.50;;;5.30;92.60;;;;;;4341231;33;20190;-69
2020/12/27 10:32:45;;;;;;;1.57;0.93;;;5.30;92.60;;;;;;4335932;33;20263;-65
2020/12/27 10:35:11;;;;;;;0.97;0.43;;;5.20;92.70;;;;;;4338275;33;20580;-64
2020/12/27 10:37:45;;;;;;;0.80;0.57;;;5.30;92.90;;;;;;4344968;32;20221;-65
2020/12/27 10:40:42;;;;;;;0.67;0.67;;;5.30;92.70;;;;;;4340291;33;20164;-64
2020/12/27 10:43:23;;;;;;;0.40;0.40;;;5.30;92.60;;;;;;4339387;33;20199;-65
2020/12/27 10:45:49;;;;;;;0.50;0.50;;;5.30;92.50;;;;;;4334995;32;20220;-66
2020/12/27 10:48:17;;;;;;;0.63;0.43;;;5.30;92.70;;;;;;4336167;33;20157;-69
2020/12/27 10:50:56;;;;;;;1.43;0.50;;;5.40;92.60;;;;;;4336093;32;20177;-66
2020/12/27 10:53:36;;;;;;;0.40;0.40;;;5.40;92.50;;;;;;4337211;32;20206;-68
2020/12/27 10:56:04;;;;;;;0.37;0.37;;;5.40;92.50;;;;;;4337526;33;20682;-65
2020/12/27 10:58:36;;;;;;;0.53;0.40;;;5.40;92.60;;;;;;4335911;33;20167;-64
2020/12/27 11:01:17;;;;;;;0.50;0.40;;;5.40;92.40;;;;;;4350141;32;20208;-64
2020/12/27 11:03:43;;;;;;;0.50;0.50;;;5.40;92.50;;;;;;4372309;32;20172;-67
2020/12/27 11:06:11;;;;;;;1.77;0.60;;;5.40;92.70;;;;;;4376980;32;20577;-65
2020/12/27 11:08:49;;;;;;;0.80;0.70;;;5.40;92.60;;;;;;4354007;32;20158;-67
2020/12/27 11:11:30;;;;;;;3.57;0.77;;;5.50;92.50;;;;;;4342328;32;20208;-66
2020/12/27 11:13:58;;;;;;;0.50;0.50;;;5.40;92.50;;;;;;4343122;32;20624;-65
2020/12/27 11:16:26;;;;;;;1.63;0.57;;;5.40;92.40;;;;;;4342299;33;20208;-67
2020/12/27 11:18:54;;;;;;;0.30;0.30;;;5.50;92.30;;;;;;4340405;32;20209;-65
2020/12/27 11:21:25;;;;;;;1.87;0.60;;;5.50;92.50;;;;;;4338557;32;20152;-67
2020/12/27 11:23:53;;;;;;;0.40;0.33;;;5.40;92.40;;;;;;4341435;32;20226;-66
2020/12/27 11:26:30;;;;;;;0.50;0.50;;;5.50;92.50;;;;;;4343616;32;20228;-66
2020/12/27 11:28:58;;;;;;;0.50;0.50;;;5.50;92.20;;;;;;4342365;32;20206;-68
2020/12/27 11:34:26;;;;;;;0.70;0.70;;;5.60;91.90;;;;;;4343081;32;20772;-65
2020/12/27 11:36:57;;;;;;;0.43;0.33;;;5.60;91.90;;;;;;4348306;32;20203;-64
2020/12/27 11:39:50;;;;;;;;;;;;;;;;;;;;;
2020/12/27 11:42:21;;;;;;;0.73;0.40;;;5.70;91.80;;;;;;4327734;32;20238;-64
2020/12/27 11:44:57;;;;;;;1.90;0.50;;;5.70;92.10;;;;;;4329924;32;20149;-64
2020/12/27 11:47:23;;;;;;;0.83;0.77;;;5.70;92.10;;;;;;4331157;32;20668;-65
2020/12/27 11:49:49;;;;;;;0.40;0.40;;;5.70;91.90;;;;;;4330623;32;20198;-66
2020/12/27 11:52:25;;;;;;;0.73;0.47;;;5.70;92.00;;;;;;4332232;32;20246;-64
2020/12/27 11:55:09;;;;;;;0.67;0.47;;;5.70;91.80;;;;;;4328117;32;20541;-67
2020/12/27 11:57:36;;;;;;;0.50;0.50;;;5.70;92.10;;;;;;4324463;32;21279;-65
2020/12/27 12:00:12;;;;;;;0.50;0.50;;;5.70;92.20;;;;;;4329331;32;20652;-65
2020/12/27 12:02:42;;;;;;;0.50;0.50;;;5.70;92.30;;;;;;4327716;32;20223;-63
2020/12/27 12:05:11;;;;;;;0.70;0.60;;;5.60;92.40;;;;;;4327484;32;20611;-65
2020/12/27 12:07:53;;;;;;;1.23;1.00;;;5.60;92.40;;;;;;4326149;32;20180;-64
2020/12/27 12:10:30;;;;;;;0.80;0.53;;;5.60;92.30;;;;;;4330395;32;20593;-66
2020/12/27 12:13:02;;;;;;;1.97;0.77;;;5.60;92.40;;;;;;4328290;32;20263;-65
2020/12/27 12:15:28;;;;;;;1.00;0.53;;;5.70;92.30;;;;;;4344610;32;20307;-67
2020/12/27 12:18:03;;;;;;;0.70;0.50;;;5.70;92.30;;;;;;4350241;32;20149;-66
2020/12/27 12:23:40;;;;;;;0.57;0.57;;;5.70;92.10;;;;;;4340937;32;20630;-66
2020/12/27 12:26:17;;;;;;;0.73;0.50;;;5.70;92.00;;;;;;4346566;32;20722;-67
2020/12/27 12:28:49;;;;;;;1.73;0.60;;;5.70;92.30;;;;;;4354687;32;20221;-65
2020/12/27 12:31:18;;;;;;;0.73;0.50;;;5.70;92.40;;;;;;4355190;32;20211;-67
2020/12/27 12:33:58;;;;;;;0.73;0.67;;;5.70;92.30;;;;;;4350881;32;20282;-65
2020/12/27 12:36:44;;;;;;;1.87;0.47;;;5.70;92.40;;;;;;4346766;32;20965;-65
2020/12/27 12:39:25;;;;;;;0.60;0.50;;;5.70;92.50;;;;;;4280525;33;20163;-65
2020/12/27 12:42:06;;;;;;;0.30;0.30;;;5.70;92.60;;;;;;4280967;33;20221;-67
2020/12/27 12:44:57;;;;;;;0.83;0.43;;;5.70;92.40;;;;;;4287379;33;20291;-64
2020/12/27 12:47:28;;;;;;;1.37;0.60;;;5.70;92.20;;;;;;4288058;33;20161;-64
2020/12/27 12:50:00;;;;;;;1.73;0.70;;;5.70;92.20;;;;;;4287977;33;20346;-64
2020/12/27 12:52:31;;;;;;;1.13;0.70;;;5.70;92.40;;;;;;4286226;33;20249;-65
2020/12/27 12:55:01;;;;;;;0.80;0.50;;;5.70;92.50;;;;;;4282263;33;20169;-65
2020/12/27 12:57:28;;;;;;;0.70;0.60;;;5.70;92.10;;;;;;4281310;33;20205;-66
2020/12/27 12:59:59;;;;;;;0.93;0.50;;;5.70;92.40;;;;;;4294505;33;20635;-67
2020/12/27 13:02:30;;;;;;;0.50;0.50;;;5.70;92.60;;;;;;4342861;32;20254;-64
2020/12/27 13:04:56;;;;;;;1.30;0.63;;;5.70;92.50;;;;;;4341035;32;20172;-65
2020/12/27 13:07:23;;;;;;;2.57;0.40;;;5.70;92.50;;;;;;4339968;32;20307;-64
2020/12/27 13:09:51;;;;;;;0.47;0.40;;;5.80;92.50;;;;;;4340634;32;20195;-63
2020/12/27 13:12:27;;;;;;;1.77;0.67;;;5.80;92.40;;;;;;4341070;32;20250;-64
2020/12/27 13:14:55;;;;;;;0.40;0.40;;;5.80;92.20;;;;;;4343536;32;20339;-68
2020/12/27 13:17:21;;;;;;;0.50;0.50;;;5.80;92.30;;;;;;4342777;32;20226;-64
2020/12/27 13:19:57;;;;;;;2.50;0.70;;;5.80;92.30;;;;;;4359139;32;20154;-66
2020/12/27 13:22:38;;;;;;;1.10;0.50;;;5.80;92.50;;;;;;4361207;32;20168;-65
2020/12/27 13:25:12;;;;;;;1.90;0.60;;;5.80;92.40;;;;;;4364736;32;20248;-65
2020/12/27 13:27:47;;;;;;;0.40;0.40;;;5.80;92.30;;;;;;4351088;32;20191;-66
2020/12/27 13:30:22;;;;;;;1.00;0.63;;;5.80;92.50;;;;;;4350336;32;20158;-66
2020/12/27 13:32:54;;;;;;;0.47;0.40;;;5.80;92.50;;;;;;4351569;32;20183;-66
2020/12/27 13:35:23;;;;;;;1.23;0.60;;;5.80;92.60;;;;;;4352600;32;24766;-64
2020/12/27 13:37:49;;;;;;;0.67;0.60;;;5.80;92.40;;;;;;4363794;32;20325;-64